• Join FlightAware (Why Join?)
  • Login
  • US Flag 
05:52AM EDT


 

Airport Tracker/Info


-or-


 

Live Flight TrackerFlight Track Log ✈ AVN10 ✈ 21-Sep-2013 ✈ NVVV / VLI - YSSY / SYD

Flight Track Log - Related Links

Times and Time Zones

All times are in EDT time to prevent confusion due to time zone crossing. See the AVN10 flight status page for this flight to view local times or setup timezone preferences in your user account.

Time Position Orientation Groundspeed Altitude Reporting Facility
EDT Latitude Longitude Course Direction KTS MPH feet Rate Location/Type
12:51AM -18.2380 167.8427 204° Southwest  Level Estimated
12:52AM -18.3470 167.7966 202° Southwest  Level FlightAware Approximate
12:53AM -18.4560 167.7505 202° Southwest  Level FlightAware Approximate
12:54AM -18.5649 167.7044 202° Southwest  Level FlightAware Approximate
12:55AM -18.6738 167.6582 202° Southwest  Level FlightAware Approximate
12:56AM -18.7827 167.6119 202° Southwest  Level FlightAware Approximate
12:57AM -18.8917 167.5656 202° Southwest  Level FlightAware Approximate
12:58AM -19.0006 167.5192 202° Southwest  Level FlightAware Approximate
12:59AM -19.1094 167.4728 202° Southwest  Level FlightAware Approximate
01:00AM -19.2183 167.4263 202° Southwest  Level FlightAware Approximate
01:01AM -19.3272 167.3797 202° Southwest  Level FlightAware Approximate
01:02AM -19.4360 167.3331 202° Southwest  Level FlightAware Approximate
01:03AM -19.5449 167.2864 202° Southwest  Level FlightAware Approximate
01:04AM -19.6537 167.2397 202° Southwest  Level FlightAware Approximate
01:05AM -19.7625 167.1928 202° Southwest  Level FlightAware Approximate
01:06AM -19.8713 167.1460 202° Southwest  Level FlightAware Approximate
01:07AM -19.9801 167.0990 202° Southwest  Level FlightAware Approximate
01:08AM -20.0889 167.0520 202° Southwest  Level FlightAware Approximate
01:09AM -20.1977 167.0049 202° Southwest  Level FlightAware Approximate
01:10AM -20.3064 166.9578 202° Southwest  Level FlightAware Approximate
01:11AM -20.4151 166.9106 202° Southwest  Level FlightAware Approximate
01:12AM -20.5239 166.8633 202° Southwest  Level FlightAware Approximate
01:13AM -20.6326 166.8160 202° Southwest  Level FlightAware Approximate
01:13AM -20.5620 166.8980 224° Southwest 405 466 34,500  Level FlightAware
01:14AM -20.7187 166.7306 224° Southwest  Level Estimated
01:14AM -20.6230 166.8690 204° Southwest 403 464 35,000  Level FlightAware
01:15AM -20.6840 166.8400 204° Southwest 401 461 35,500 780 Climbing FlightAware
01:15AM -20.7390 166.8140 204° Southwest 399 459 35,900 420 Climbing FlightAware
01:16AM -20.7990 166.7860 204° Southwest 400 460 36,000 60 Climbing FlightAware
01:16AM -20.8580 166.7580 204° Southwest 399 459 36,000  Level FlightAware
01:17AM -20.9170 166.7300 204° Southwest 398 458 36,000  Level FlightAware
01:18AM -20.9790 166.7010 204° Southwest 398 458 36,000  Level FlightAware
01:18AM -21.0350 166.6750 203° Southwest 398 458 36,000  Level FlightAware
01:19AM -21.0940 166.6470 204° Southwest 396 456 36,000  Level FlightAware
01:19AM -21.1550 166.6180 204° Southwest 393 452 36,000  Level FlightAware
01:20AM -21.2130 166.5900 204° Southwest 393 452 36,000  Level FlightAware
01:20AM -21.2740 166.5610 204° Southwest 393 452 36,000  Level FlightAware
01:21AM -21.3340 166.5330 203° Southwest 393 452 36,000  Level FlightAware
01:22AM -21.3900 166.5060 204° Southwest 393 452 36,000  Level FlightAware
01:22AM -21.4490 166.4780 204° Southwest 395 455 36,000  Level FlightAware
01:23AM -21.5100 166.4490 204° Southwest 396 456 36,000  Level FlightAware
01:23AM -21.5640 166.4230 204° Southwest 396 456 36,000  Level FlightAware
01:24AM -21.6280 166.3930 204° Southwest 397 457 36,000  Level FlightAware
01:25AM -21.6850 166.3650 205° Southwest 397 457 36,000  Level FlightAware
01:25AM -21.7430 166.3380 203° Southwest 397 457 36,000  Level FlightAware
01:26AM -21.7990 166.3100 205° Southwest 399 459 36,000  Level FlightAware
01:26AM -21.8640 166.2790 204° Southwest 400 460 36,000  Level FlightAware
01:27AM -21.9180 166.2540 203° Southwest 399 459 36,000  Level FlightAware
01:27AM -21.9780 166.2250 204° Southwest 398 458 36,000  Level FlightAware
01:28AM -22.0210 166.1940 214° Southwest 382 440 36,000  Level FlightAware
01:29AM -22.0690 166.1450 223° Southwest 376 433 36,000  Level FlightAware
01:29AM -22.1090 166.1030 224° Southwest 374 430 36,000  Level FlightAware
01:30AM -22.1530 166.0570 224° Southwest 373 429 36,000  Level FlightAware
01:30AM -22.1980 166.0100 224° Southwest 373 429 36,000  Level FlightAware
01:31AM -22.2380 165.9680 224° Southwest 372 428 36,000  Level FlightAware
01:31AM -22.2840 165.9200 224° Southwest 371 427 36,000  Level FlightAware
01:32AM -22.3290 165.8720 225° Southwest 370 426 36,000  Level FlightAware
01:33AM -22.3670 165.8320 224° Southwest 369 425 36,000  Level FlightAware
01:33AM -22.4120 165.7850 224° Southwest 368 423 36,000  Level FlightAware
01:34AM -22.4530 165.7410 225° Southwest 367 422 36,000  Level FlightAware
01:34AM -22.4940 165.6980 224° Southwest 367 422 36,000  Level FlightAware
01:35AM -22.5380 165.6520 224° Southwest 366 421 36,000  Level FlightAware
01:36AM -22.5820 165.6050 225° Southwest 365 420 36,000  Level FlightAware
01:36AM -22.6230 165.5620 224° Southwest 365 420 36,000  Level FlightAware
01:37AM -22.6670 165.5150 225° Southwest 365 420 36,000  Level FlightAware
01:37AM -22.7080 165.4720 224° Southwest 365 420 36,000  Level FlightAware
01:38AM -22.7510 165.4260 225° Southwest 366 421 36,000  Level FlightAware
01:38AM -22.7930 165.3820 224° Southwest 365 420 36,000  Level FlightAware
01:39AM -22.8360 165.3360 225° Southwest 366 421 36,000  Level FlightAware
01:40AM -22.8790 165.2900 225° Southwest 370 426 36,000  Level FlightAware
01:40AM -22.9190 165.2480 224° Southwest 372 428 36,000  Level FlightAware
01:41AM -22.9640 165.2000 224° Southwest 374 430 36,000  Level FlightAware
01:41AM -23.0090 165.1520 224° Southwest 375 432 36,000  Level FlightAware
01:42AM -23.0490 165.1100 224° Southwest 375 432 36,000  Level FlightAware
01:43AM -23.0930 165.0620 225° Southwest 374 430 36,000  Level FlightAware
01:43AM -23.1380 165.0140 224° Southwest 374 430 36,000  Level FlightAware
01:44AM -23.1820 164.9670 224° Southwest 374 430 36,000  Level FlightAware
01:44AM -23.2220 164.9240 225° Southwest 374 430 36,000  Level FlightAware
01:45AM -23.2750 164.8680 224° Southwest 374 430 36,000  Level FlightAware
01:46AM -23.3130 164.8280 224° Southwest 374 430 36,000  Level FlightAware
01:46AM -23.3510 164.7880 224° Southwest 374 430 36,000  Level FlightAware
01:47AM -23.3890 164.7480 224° Southwest 374 430 36,000  Level FlightAware
01:47AM -23.4280 164.7070 224° Southwest 374 430 36,000  Level FlightAware
01:48AM -23.4660 164.6670 224° Southwest 374 430 36,000  Level FlightAware
01:49AM -23.5040 164.6270 224° Southwest 374 430 36,000  Level FlightAware
01:49AM -23.5420 164.5870 224° Southwest 374 430 36,000  Level FlightAware
01:50AM -23.5800 164.5470 224° Southwest 374 430 36,000  Level FlightAware
01:50AM -23.6190 164.5050 225° Southwest 374 430 36,000  Level FlightAware
01:51AM -23.6580 164.4650 223° Southwest 374 430 36,000  Level FlightAware
01:52AM -23.6960 164.4250 224° Southwest 374 430 36,000  Level FlightAware
01:52AM -23.7340 164.3850 224° Southwest 374 430 36,000  Level FlightAware
01:53AM -23.7720 164.3450 224° Southwest 374 430 36,000  Level FlightAware
01:53AM -23.8110 164.3030 225° Southwest 374 430 36,000  Level FlightAware
01:54AM -23.8520 164.2600 224° Southwest 374 430 36,000 -60 Level FlightAware
01:57AM -24.0489 164.0425 225° Southwest  Level FlightAware Approximate
01:58AM -24.1314 163.9510 225° Southwest  Level FlightAware Approximate
01:59AM -24.2139 163.8594 225° Southwest  Level FlightAware Approximate
02:00AM -24.2963 163.7677 225° Southwest  Level FlightAware Approximate
02:01AM -24.3787 163.6759 225° Southwest  Level FlightAware Approximate
02:02AM -24.4610 163.5839 225° Southwest  Level FlightAware Approximate
02:03AM -24.5432 163.4919 226° Southwest  Level FlightAware Approximate
02:03AM -25.0416 162.9288 224° Southwest 30,000  Level Aus ATC (Calculated)
02:05AM -24.9001 163.0917 46° Northeast  Level FlightAware Approximate
02:06AM -24.9733 163.0075 226° Southwest  Level FlightAware Approximate
02:06AM -25.3470 162.5853 224° Southwest 30,000  Level Aus ATC (Calculated)
02:07AM -25.4391 162.4812 224° Southwest 30,000  Level Aus ATC (Calculated)
02:08AM -25.3652 162.5650 46° Northeast  Level FlightAware Approximate
02:09AM -25.2913 162.6488 46° Northeast  Level FlightAware Approximate
02:10AM -25.3644 162.5641 225° Southwest  Level Estimated
02:10AM -25.7507 162.1270 224° Southwest 30,000  Level Aus ATC (Calculated)
02:10AM -25.8299 162.0366 224° Southwest 30,000  Level Aus ATC (Calculated)
02:11AM -25.8244 162.0428 226° Southwest  Level FlightAware Approximate
02:11AM -25.9065 161.9489 224° Southwest 30,000  Level Aus ATC (Calculated)
02:12AM -25.9131 161.9414 226° Southwest  Level FlightAware Approximate
02:12AM -25.9807 161.8638 224° Southwest 30,000  Level Aus ATC (Calculated)
02:14AM -26.1065 161.7192 226° Southwest  Level FlightAware Approximate
02:15AM -26.1777 161.6371 226° Southwest  Level FlightAware Approximate
02:16AM -26.2488 161.5550 226° Southwest  Level FlightAware Approximate
02:17AM -26.3199 161.4728 226° Southwest  Level FlightAware Approximate
02:18AM -26.3909 161.3905 226° Southwest  Level FlightAware Approximate
02:19AM -26.4618 161.3081 226° Southwest  Level FlightAware Approximate
02:20AM -26.5327 161.2256 226° Southwest  Level FlightAware Approximate
02:21AM -26.6036 161.1429 226° Southwest  Level FlightAware Approximate
02:21AM -26.9462 160.7413 224° Southwest 30,000  Level Aus ATC (Calculated)
02:22AM -26.6744 161.0602 226° Southwest  Level FlightAware Approximate
02:22AM -27.0285 160.6443 224° Southwest 30,000  Level Aus ATC (Calculated)
02:23AM -27.0452 160.6245 226° Southwest  Level FlightAware Approximate
02:24AM -27.1310 160.5231 226° Southwest  Level FlightAware Approximate
02:25AM -27.2024 160.4385 226° Southwest  Level FlightAware Approximate
02:26AM -27.2738 160.3537 227° Southwest  Level FlightAware Approximate
02:27AM -27.3451 160.2688 227° Southwest  Level FlightAware Approximate
02:28AM -27.4164 160.1838 227° Southwest  Level FlightAware Approximate
02:29AM -27.4876 160.0987 227° Southwest  Level FlightAware Approximate
02:30AM -27.5588 160.0135 227° Southwest  Level FlightAware Approximate
02:31AM -27.6300 159.9282 227° Southwest  Level FlightAware Approximate
02:32AM -27.7010 159.8428 227° Southwest  Level FlightAware Approximate
02:33AM -27.7721 159.7572 227° Southwest  Level FlightAware Approximate
02:33AM -28.1781 159.2648 222° Southwest 30,000  Level Aus ATC (Calculated)
02:34AM -27.8430 159.6716 227° Southwest  Level FlightAware Approximate
02:35AM -28.2888 159.1295 227° Southwest  Level FlightAware Approximate
02:35AM -28.3767 159.0217 221° Southwest 32,000  Level Aus ATC (Calculated)
02:37AM -28.2661 159.1572 47° Northeast  Level FlightAware Approximate
02:37AM -28.5397 158.8210 220° Southwest 32,000  Level Aus ATC (Calculated)
02:39AM -28.4293 158.9570 47° Northeast  Level FlightAware Approximate
02:40AM -28.3588 159.0436 47° Northeast  Level FlightAware Approximate
02:41AM -28.2883 159.1301 47° Northeast  Level FlightAware Approximate
02:42AM -28.2177 159.2165 47° Northeast  Level FlightAware Approximate
02:43AM -28.2883 159.1301 227° Southwest  Level FlightAware Approximate
02:44AM -28.2177 159.2165 47° Northeast  Level FlightAware Approximate
02:44AM -29.1077 158.1138 192° South 32,000  Level Aus ATC (Calculated)
02:44AM -29.1482 158.0629 181° South 32,000 -60 Level Aus ATC (Calculated)
02:45AM -29.2290 157.9612 142° Southeast 32,000 -60 Level Aus ATC (Calculated)
02:47AM -29.1161 158.1032 48° Northeast  Level FlightAware Approximate
02:48AM -29.0455 158.1918 48° Northeast  Level FlightAware Approximate
02:49AM -28.9749 158.2803 48° Northeast  Level FlightAware Approximate
02:49AM -29.5514 157.5526 64° Northeast 32,000  Level Aus ATC (Calculated)
02:49AM -29.6318 157.4501 61° Northeast 32,000 -60 Level Aus ATC (Calculated)
02:51AM -29.5369 157.5711 48° Northeast  Level FlightAware Approximate
02:52AM -29.4628 157.6653 48° Northeast  Level FlightAware Approximate
02:53AM -29.3887 157.7593 48° Northeast  Level FlightAware Approximate
02:54AM -29.3145 157.8532 48° Northeast  Level FlightAware Approximate
02:54AM -30.0327 156.9349 55° Northeast 32,000  Level Aus ATC (Calculated)
02:55AM -29.2403 157.9470 48° Northeast  Level FlightAware Approximate
02:56AM -29.9321 157.0648 48° Northeast  Level FlightAware Approximate
02:57AM -30.0035 156.9676 227° Southwest  Level Estimated
02:58AM -30.0773 156.8726 228° Southwest  Level FlightAware Approximate
02:59AM -30.1509 156.7775 228° Southwest  Level FlightAware Approximate
02:59AM -30.4712 156.3634 53° Northeast 32,000  Level Aus ATC (Calculated)
03:01AM -30.5712 156.2321 229° Southwest  Level FlightAware Approximate
03:02AM -30.6442 156.1358 229° Southwest  Level FlightAware Approximate
03:03AM -30.7171 156.0393 229° Southwest  Level FlightAware Approximate
03:04AM -30.7900 155.9427 229° Southwest  Level FlightAware Approximate
03:04AM -30.8820 155.8622 51° Northeast 38,000  Level Aus ATC (Calculated)
03:05AM -29.3389 158.0587 229° Southwest 424 488 31,900 -5,340 Descending Aus ATC (RADAR)
03:05AM -29.3867 158.0068 223° Southwest 412 474 31,900  Level Aus ATC (RADAR)
03:06AM -29.4284 157.9620 223° Southwest 410 472 31,900  Level Aus ATC (RADAR)
03:06AM -29.4763 157.9097 223° Southwest 410 472 31,900  Level Aus ATC (RADAR)
03:07AM -29.5249 157.8571 223° Southwest 410 472 31,900  Level Aus ATC (RADAR)
03:08AM -29.5870 157.7894 223° Southwest 410 472 31,900  Level Aus ATC (RADAR)
03:08AM -29.6217 157.7518 223° Southwest 410 472 31,900  Level Aus ATC (RADAR)
03:09AM -29.6709 157.6986 223° Southwest 411 473 31,900  Level Aus ATC (RADAR)
03:09AM -29.7277 157.6374 223° Southwest 415 478 31,900  Level Aus ATC (RADAR)
03:10AM -29.7787 157.5833 223° Southwest 419 482 31,900  Level Aus ATC (RADAR)
03:10AM -29.8282 157.5300 223° Southwest 419 482 31,900  Level Aus ATC (RADAR)
03:11AM -29.8689 157.4848 224° Southwest 415 478 31,900  Level Aus ATC (RADAR)
03:12AM -29.9171 157.4318 224° Southwest 412 474 31,900  Level Aus ATC (RADAR)
03:12AM -29.9879 157.3550 223° Southwest 416 479 31,900  Level Aus ATC (RADAR)
03:13AM -30.0294 157.3092 224° Southwest 415 478 31,900  Level Aus ATC (RADAR)
03:14AM -30.0782 157.2525 225° Southwest 398 458 31,900  Level Aus ATC (RADAR)
03:14AM -30.1285 157.1979 223° Southwest 409 471 31,900  Level Aus ATC (RADAR)
03:15AM -30.1722 157.1510 223° Southwest 420 483 31,900  Level Aus ATC (RADAR)
03:15AM -30.2185 157.0987 224° Southwest 413 475 31,900  Level Aus ATC (RADAR)
03:16AM -30.2649 157.0469 224° Southwest 405 466 31,900  Level Aus ATC (RADAR)
03:16AM -30.3044 157.0029 224° Southwest 399 459 31,900  Level Aus ATC (RADAR)
03:17AM -30.3519 156.9501 224° Southwest 402 463 31,900  Level Aus ATC (RADAR)
03:18AM -30.4268 156.8673 224° Southwest 404 465 31,900  Level Aus ATC (RADAR)
03:18AM -30.4537 156.8374 224° Southwest 404 465 31,900  Level Aus ATC (RADAR)
03:19AM -30.5009 156.7846 224° Southwest 404 465 31,900  Level Aus ATC (RADAR)
03:19AM -30.5623 156.7162 224° Southwest 407 468 31,900  Level Aus ATC (RADAR)
03:20AM -30.6098 156.6631 224° Southwest 407 468 31,900  Level Aus ATC (RADAR)
03:21AM -30.6508 156.6174 224° Southwest 408 470 31,900  Level Aus ATC (RADAR)
03:21AM -30.6919 156.5717 224° Southwest 408 470 31,900  Level Aus ATC (RADAR)
03:22AM -30.7393 156.5184 224° Southwest 407 468 31,900 60 Level Aus ATC (RADAR)
03:22AM -30.7871 156.4649 224° Southwest 409 471 32,000 60 Climbing Aus ATC (RADAR)
03:23AM -30.8348 156.4113 224° Southwest 409 471 32,000  Level Aus ATC (RADAR)
03:23AM -30.8691 156.3731 224° Southwest 409 471 32,000  Level Aus ATC (RADAR)
03:24AM -30.9169 156.3191 224° Southwest 411 473 32,000  Level Aus ATC (RADAR)
03:24AM -30.9786 156.2494 224° Southwest 412 474 32,000  Level Aus ATC (RADAR)
03:25AM -31.0263 156.1956 224° Southwest 411 473 32,000  Level Aus ATC (RADAR)
03:26AM -31.0719 156.1383 227° Southwest 412 474 32,000  Level Aus ATC (RADAR)
03:26AM -31.1096 156.0885 228° Southwest 410 472 32,000  Level Aus ATC (RADAR)
03:27AM -31.1538 156.0306 228° Southwest 410 472 32,000  Level Aus ATC (RADAR)
03:27AM -31.1915 155.9807 228° Southwest 410 472 32,000  Level Aus ATC (RADAR)
03:28AM -31.2553 155.8981 228° Southwest 410 472 32,000  Level Aus ATC (RADAR)
03:28AM -31.2804 155.8649 229° Southwest 410 472 32,000  Level Aus ATC (RADAR)
03:29AM -31.3245 155.8070 228° Southwest 409 471 32,000  Level Aus ATC (RADAR)
03:30AM -31.3813 155.7326 228° Southwest 409 471 32,000  Level Aus ATC (RADAR)
03:30AM -31.4187 155.6830 229° Southwest 407 468 32,000  Level Aus ATC (RADAR)
03:31AM -31.4627 155.6252 228° Southwest 408 470 32,000  Level Aus ATC (RADAR)
03:31AM -31.5002 155.5754 228° Southwest 408 470 32,000  Level Aus ATC (RADAR)
03:32AM -31.5443 155.5177 228° Southwest 408 470 32,000  Level Aus ATC (RADAR)
03:32AM -31.5888 155.4586 229° Southwest 412 474 32,000  Level Aus ATC (RADAR)
03:33AM -31.6451 155.3838 228° Southwest 410 472 32,000  Level Aus ATC (RADAR)
03:34AM -31.6769 155.3415 229° Southwest 412 474 32,000  Level Aus ATC (RADAR)
03:34AM -31.7205 155.2834 229° Southwest 410 472 32,000  Level Aus ATC (RADAR)
03:35AM -31.7707 155.2168 228° Southwest 410 472 32,000  Level Aus ATC (RADAR)
03:35AM -31.8142 155.1588 229° Southwest 408 470 32,000  Level Aus ATC (RADAR)
03:36AM -31.8578 155.1007 229° Southwest 405 466 32,000  Level Aus ATC (RADAR)
03:36AM -31.8710 155.0830 229° Southwest 406 467 32,000  Level FlightAware
03:37AM -31.9009 155.0426 229° Southwest 405 466 32,000  Level Aus ATC (RADAR)
03:37AM -31.9190 155.0180 229° Southwest 405 466 32,000  Level FlightAware
03:37AM -31.9550 154.9710 228° Southwest 404 465 32,000  Level FlightAware
03:38AM -31.9992 154.9105 228° Southwest 403 464 32,000  Level Aus ATC (RADAR)
03:38AM -32.0040 154.9050 228° Southwest 404 465 32,000  Level FlightAware
03:39AM -32.0608 154.8278 228° Southwest 402 463 32,000  Level Aus ATC (RADAR)
03:39AM -32.0440 154.8520 228° Southwest 404 465 32,000  Level FlightAware
03:39AM -32.0980 154.7780 228° Southwest 403 464 32,000  Level FlightAware
03:39AM -32.1035 154.7702 228° Southwest 399 459 32,000  Level Aus ATC (RADAR)
03:40AM -32.1390 154.7220 229° Southwest 403 464 32,000  Level FlightAware
03:41AM -32.1954 154.6459 229° Southwest 403 464 32,000  Level Aus ATC (RADAR)
03:41AM -32.2110 154.6260 229° Southwest 403 464 32,000  Level FlightAware
03:41AM -32.2480 154.5750 229° Southwest 404 465 32,000  Level FlightAware
03:42AM -32.2960 154.5100 229° Southwest 404 465 32,000  Level FlightAware
03:43AM -32.3370 154.4550 229° Southwest 404 465 32,000  Level FlightAware
03:43AM -32.3800 154.3960 229° Southwest 405 466 32,000  Level FlightAware
03:44AM -32.4220 154.3380 229° Southwest 406 467 32,000  Level FlightAware
03:44AM -32.4660 154.2790 229° Southwest 402 463 32,000  Level FlightAware
03:45AM -32.5210 154.2020 229° Southwest 403 464 32,000  Level FlightAware
03:45AM -32.5267 154.1951 229° Southwest 404 465 32,000  Level Aus ATC (RADAR)
03:46AM -32.5590 154.1500 229° Southwest 409 471 32,000  Level FlightAware
03:46AM -32.5696 154.1354 229° Southwest 404 465 32,000  Level Aus ATC (RADAR)
03:46AM -32.6000 154.0950 229° Southwest 410 472 32,000  Level FlightAware
03:46AM -32.6069 154.0847 229° Southwest 407 468 32,000  Level Aus ATC (RADAR)
03:47AM -32.6506 154.0254 229° Southwest 409 471 32,000  Level Aus ATC (RADAR)
03:47AM -32.6480 154.0290 229° Southwest 411 473 32,000  Level FlightAware
03:47AM -32.6960 153.9630 229° Southwest 406 467 32,000  Level FlightAware
03:48AM -32.7300 153.9160 229° Southwest 407 468 32,000  Level FlightAware
03:48AM -32.7369 153.9053 229° Southwest 414 476 32,000  Level Aus ATC (RADAR)
03:48AM -32.7741 153.8540 229° Southwest 411 473 32,000  Level Aus ATC (RADAR)
03:49AM -32.7880 153.8350 229° Southwest 408 470 32,000  Level FlightAware
03:49AM -32.8320 153.7740 229° Southwest 409 471 32,000  Level FlightAware
03:50AM -32.8750 153.7140 230° Southwest 409 471 32,000  Level FlightAware
03:50AM -32.9140 153.6600 229° Southwest 409 471 32,000  Level FlightAware
03:51AM -32.9630 153.5920 229° Southwest 408 470 32,000  Level FlightAware
03:52AM -33.0070 153.5310 229° Southwest 408 470 32,000  Level FlightAware
03:52AM -33.0500 153.4710 229° Southwest 408 470 32,000  Level FlightAware
03:53AM -33.0920 153.4120 230° Southwest 407 468 32,000  Level FlightAware
03:53AM -33.1340 153.3530 230° Southwest 408 470 32,000  Level FlightAware
03:54AM -33.1860 153.2800 230° Southwest 409 471 32,000  Level FlightAware
03:55AM -33.2410 153.2020 230° Southwest 409 471 32,000  Level FlightAware
03:55AM -33.2850 153.1410 230° Southwest 410 472 32,000  Level FlightAware
03:55AM -33.2882 153.1363 230° Southwest 403 464 32,000  Level Aus ATC (RADAR)
03:56AM -33.3251 153.0836 230° Southwest 404 465 32,000  Level Aus ATC (RADAR)
03:56AM -33.3330 153.0720 230° Southwest 414 476 32,000  Level FlightAware
03:57AM -33.3770 153.0110 229° Southwest 414 476 32,000  Level FlightAware
03:57AM -33.4210 152.9480 230° Southwest 414 476 32,000  Level FlightAware
03:58AM -33.4630 152.8890 230° Southwest 415 478 32,000  Level FlightAware
03:58AM -33.5042 152.8300 230° Southwest 406 467 32,000  Level Aus ATC (RADAR)
03:58AM -33.5100 152.8220 230° Southwest 415 478 32,000 -1,440 Level FlightAware
03:59AM -33.5550 152.7570 230° Southwest 404 465 31,000 -1,800 Descending FlightAware
04:00AM -33.5910 152.7060 230° Southwest 395 455 30,000 -2,040 Descending FlightAware
04:00AM -33.6300 152.6500 230° Southwest 388 447 28,800 -2,220 Descending FlightAware
04:01AM -33.6730 152.5890 230° Southwest 380 437 27,400 -2,220 Descending FlightAware
04:01AM -33.7130 152.5310 230° Southwest 372 428 26,200 -2,160 Descending FlightAware
04:02AM -33.7628 152.4606 230° Southwest 363 418 24,600 -2,100 Descending Aus ATC (RADAR)
04:02AM -33.7600 152.4640 230° Southwest 362 417 24,700 -1,860 Climbing FlightAware
04:03AM -33.7950 152.4130 230° Southwest 355 409 23,600 -2,280 Descending FlightAware
04:03AM -33.7996 152.4068 230° Southwest 358 412 23,400 -2,040 Descending Aus ATC (RADAR)
04:03AM -33.8320 152.3610 229° Southwest 347 399 22,400 -1,920 Descending FlightAware
04:04AM -33.8660 152.3110 231° Southwest 345 397 21,300 -1,920 Descending FlightAware
04:04AM -33.9030 152.2580 230° Southwest 345 397 20,200 -1,920 Descending FlightAware
04:05AM -33.9380 152.2080 230° Southwest 344 396 19,100 -1,980 Descending FlightAware
04:05AM -33.9740 152.1550 230° Southwest 338 389 17,900 -2,100 Descending FlightAware
04:06AM -33.9772 152.1496 230° Southwest 335 386 17,800 -1,860 Descending Aus ATC (RADAR)
04:06AM -34.0100 152.1040 230° Southwest 332 382 16,800 -1,920 Descending FlightAware
04:06AM -34.0126 152.0995 230° Southwest 334 384 16,700 -1,800 Descending Aus ATC (RADAR)
04:07AM -34.0310 152.0540 230° Southwest 325 374 15,900 -1,920 Descending FlightAware
04:07AM -34.0349 152.0423 230° Southwest 336 387 15,600 -1,920 Descending Aus ATC (RADAR)
04:07AM -34.0290 152.0090 273° West 320 368 15,100 -1,680 Descending FlightAware
04:08AM -34.0230 151.9480 277° West 314 361 14,100 -1,800 Descending FlightAware
04:08AM -34.0160 151.8870 278° West 309 356 13,000 -1,800 Descending FlightAware
04:09AM -34.0110 151.8300 276° West 306 352 12,000 -1,680 Descending FlightAware
04:09AM -34.0040 151.7660 277° West 304 350 11,000 -1,560 Descending FlightAware
04:10AM -33.9990 151.7140 277° West 294 338 10,300 -900 Descending FlightAware
04:11AM -33.9930 151.6580 277° West 270 311 10,000 -540 Descending FlightAware
04:11AM -33.9920 151.6460 276° West 269 310 9,800 -1,380 Descending FlightAware
04:11AM -33.9850 151.5830 278° West 272 313 8,900 -1,440 Descending FlightAware
04:12AM -33.9820 151.5530 277° West 275 316 8,700 -600 Descending FlightAware
04:12AM -33.9790 151.5210 276° West 278 320 8,500 -600 Descending FlightAware
04:12AM -33.9760 151.4910 277° West 276 318 8,300 -720 Descending FlightAware
04:13AM -33.9730 151.4680 279° West 275 316 8,100 -780 Descending FlightAware
04:13AM -33.9700 151.4340 276° West 275 316 7,800 -840 Descending FlightAware
04:13AM -33.9660 151.4000 278° West 274 315 7,500 -1,080 Descending FlightAware
04:14AM -33.9630 151.3710 277° West 273 314 7,100 -1,080 Descending FlightAware
04:14AM -33.9590 151.3390 279° West 269 310 6,800 -960 Descending FlightAware
04:14AM -33.9550 151.3040 278° West 266 306 6,400 -1,080 Descending FlightAware
04:15AM -33.9490 151.2820 288° West 267 307 6,100 -960 Descending FlightAware
04:15AM -33.9400 151.2710 315° West 269 310 6,000 -300 Descending FlightAware
04:15AM -33.9300 151.2650 334° Northwest 271 312 6,000  Level FlightAware
04:15AM -33.9180 151.2620 348° North 273 314 6,000  Level FlightAware
04:16AM -33.8860 151.2650 North 276 318 6,000 -420 Level FlightAware
04:16AM -33.8650 151.2670 North 275 316 5,700 -1,080 Descending FlightAware
04:16AM -33.8430 151.2690 North 278 320 5,400 -1,080 Descending FlightAware
04:17AM -33.8130 151.2720 North 275 316 5,000 -1,200 Descending FlightAware
04:17AM -33.7719 151.2668 North 264 304 4,300 -1,200 Descending Aus ATC (RADAR)
04:17AM -33.7700 151.2640 North 258 297 4,300  Level FlightAware
04:17AM -33.7640 151.2570 316° Northwest 250 288 4,300 -540 Level FlightAware
04:18AM -33.7510 151.2360 307° West 239 275 4,100 -600 Descending FlightAware
04:18AM -33.7410 151.2120 297° West 224 258 3,900 -720 Descending FlightAware
04:18AM -33.7480 151.1850 253° West 208 239 3,600 -780 Descending FlightAware
04:18AM -33.7520 151.1810 220° Southwest 212 244 3,500 -1,200 Descending FlightAware
04:19AM -33.7600 151.1760 207° Southwest 212 244 3,300 -1,320 Descending FlightAware
04:19AM -33.7700 151.1710 203° Southwest 212 244 3,100 -900 Descending FlightAware
04:19AM -33.7780 151.1670 203° Southwest 208 239 3,000 -840 Descending FlightAware
04:19AM -33.7940 151.1540 214° Southwest 192 221 2,700 -840 Descending FlightAware
04:20AM -33.8060 151.1460 209° Southwest 191 220 2,500 -840 Descending FlightAware
04:20AM -33.8170 151.1410 201° Southwest 180 207 2,300 -900 Descending FlightAware
04:20AM -33.8320 151.1470 162° South 171 197 2,000 -900 Descending FlightAware
04:20AM -33.8430 151.1490 171° South 164 189 1,800 -840 Descending FlightAware
04:21AM -33.8580 151.1530 168° South 151 174 1,500 -900 Descending FlightAware
04:21AM -33.8700 151.1560 168° South 153 176 1,200 -1,020 Descending FlightAware
04:21AM -33.8890 151.1610 168° South 150 173 800 -840 Descending FlightAware
04:22AM -33.9030 151.1650 167° South 151 174 600 -720 Descending FlightAware
04:22AM -33.9130 151.1670 171° South 150 173 400 -840 Descending FlightAware
04:22AM -33.9220 151.1700 165° South 150 173 200 -840 Descending FlightAware
04:23AM -33.9400 151.1740 170° South 125 144 -540 Descending FlightAware